createdAt,value
2023-01-25T00:00:13.020Z,103027.03
2023-01-25T00:03:26.027Z,103029.63
2023-01-25T00:06:29.997Z,103036.53
2023-01-25T00:09:33.435Z,103035.50
2023-01-25T00:16:05.402Z,103039.16
2023-01-25T00:19:09.928Z,103028.91
2023-01-25T00:32:15.991Z,103039.25
2023-01-25T00:35:20.130Z,103026.28
2023-01-25T00:38:35.515Z,103026.22
2023-01-25T00:44:59.839Z,103025.75
2023-01-25T00:48:02.393Z,103034.94
2023-01-25T00:51:09.266Z,103036.38
2023-01-25T00:54:13.716Z,103030.66
2023-01-25T00:57:16.113Z,103033.34
2023-01-25T01:00:19.079Z,103030.66
2023-01-25T01:03:26.055Z,103022.28
2023-01-25T01:09:47.094Z,103018.03
2023-01-25T01:12:49.376Z,103005.72
2023-01-25T01:15:52.335Z,103018.13
2023-01-25T01:18:54.800Z,103004.59
2023-01-25T01:22:05.369Z,103019.00
2023-01-25T01:25:24.482Z,103010.16
2023-01-25T01:28:28.128Z,103001.22
2023-01-25T01:31:30.588Z,102997.28
2023-01-25T01:34:53.335Z,102983.03
2023-01-25T01:37:56.109Z,102993.09
2023-01-25T01:44:21.168Z,102994.09
2023-01-25T01:47:42.484Z,102989.53
2023-01-25T01:50:45.092Z,102979.47
2023-01-25T01:54:02.011Z,102976.03
2023-01-25T02:00:39.987Z,102989.41
2023-01-25T02:07:11.398Z,102976.97
2023-01-25T02:10:17.178Z,102972.56
2023-01-25T02:13:23.361Z,102969.88
2023-01-25T02:16:30.175Z,102972.44
2023-01-25T02:19:50.427Z,102966.09
2023-01-25T02:22:53.509Z,102966.56
2023-01-25T02:26:02.529Z,102949.75
2023-01-25T02:29:07.424Z,102961.56
2023-01-25T02:32:10.201Z,102965.19
2023-01-25T02:35:32.927Z,102955.75
2023-01-25T02:38:46.664Z,102937.47
2023-01-25T02:41:56.380Z,102955.16
2023-01-25T02:45:04.518Z,102948.06
2023-01-25T02:54:42.774Z,102943.50
2023-01-25T02:57:47.368Z,102934.41
2023-01-25T03:00:53.375Z,102942.03
2023-01-25T03:03:58.980Z,102923.63
2023-01-25T03:10:20.071Z,102941.06
2023-01-25T03:13:23.092Z,102946.66
2023-01-25T03:16:31.276Z,102948.03
2023-01-25T03:19:34.956Z,102937.50
2023-01-25T03:22:37.698Z,102934.41
2023-01-25T03:25:39.876Z,102931.09
2023-01-25T03:28:47.156Z,102923.38
2023-01-25T03:31:49.624Z,102930.00
2023-01-25T03:34:51.780Z,102918.09
2023-01-25T03:37:54.900Z,102906.72
2023-01-25T03:40:57.725Z,102918.97
2023-01-25T03:44:00.375Z,102911.97
2023-01-25T03:47:03.523Z,102910.38
2023-01-25T03:50:07.337Z,102913.69
2023-01-25T03:53:27.048Z,102901.53
2023-01-25T03:56:31.008Z,102909.75
2023-01-25T03:59:40.628Z,102901.41
2023-01-25T04:02:42.819Z,102921.16
2023-01-25T04:05:48.956Z,102923.47
2023-01-25T04:08:51.873Z,102923.63
2023-01-25T04:11:55.579Z,102922.25
2023-01-25T04:14:57.927Z,102924.84
2023-01-25T04:18:01.459Z,102922.53
2023-01-25T04:21:04.827Z,102916.00
2023-01-25T04:24:08.460Z,102916.75
2023-01-25T04:27:14.629Z,102908.03
2023-01-25T04:30:27.727Z,102903.25
2023-01-25T04:33:31.383Z,102908.50
2023-01-25T04:36:37.408Z,102914.66
2023-01-25T04:39:40.684Z,102918.22
2023-01-25T04:42:44.536Z,102912.81
2023-01-25T04:45:47.251Z,102921.75
2023-01-25T04:48:57.707Z,102928.16
2023-01-25T04:52:00.152Z,102927.88
2023-01-25T04:55:02.927Z,102932.59
2023-01-25T04:58:12.326Z,102915.63
2023-01-25T05:01:14.473Z,102918.00
2023-01-25T05:04:17.162Z,102923.75
2023-01-25T05:07:21.773Z,102924.47
2023-01-25T05:10:24.065Z,102906.00
2023-01-25T05:13:49.115Z,102913.19
2023-01-25T05:16:56.356Z,102908.84
2023-01-25T05:19:58.518Z,102904.13
2023-01-25T05:23:00.691Z,102916.22
2023-01-25T05:26:23.363Z,102911.81
2023-01-25T05:29:25.929Z,102927.00
2023-01-25T05:32:34.289Z,102920.16
2023-01-25T05:35:37.135Z,102937.75
2023-01-25T05:38:39.665Z,102938.31
2023-01-25T05:41:44.621Z,102939.16
2023-01-25T05:44:47.905Z,102939.13
2023-01-25T05:47:55.198Z,102937.91
2023-01-25T05:51:00.407Z,102913.06
2023-01-25T05:54:04.274Z,102932.94
2023-01-25T05:57:06.336Z,102950.31
2023-01-25T06:00:11.096Z,102947.59
2023-01-25T06:03:16.865Z,102946.47
2023-01-25T06:06:20.066Z,102948.97
2023-01-25T06:09:22.663Z,102922.75
2023-01-25T06:12:26.182Z,102953.53
2023-01-25T06:15:28.450Z,102960.00
2023-01-25T06:18:39.109Z,102964.47
2023-01-25T06:21:50.965Z,102954.06
2023-01-25T06:24:54.502Z,102953.69
2023-01-25T06:27:56.649Z,102963.78
2023-01-25T06:31:10.174Z,102959.28
2023-01-25T06:34:14.176Z,102949.31
2023-01-25T06:37:16.311Z,102952.94
2023-01-25T06:40:18.574Z,102949.38
2023-01-25T06:43:21.722Z,102958.94
2023-01-25T06:46:24.010Z,102950.00
2023-01-25T06:49:26.127Z,102966.25
2023-01-25T06:52:28.179Z,102953.72
2023-01-25T06:55:30.325Z,102956.78
2023-01-25T06:58:33.182Z,102965.56
2023-01-25T07:01:35.413Z,102953.34
2023-01-25T07:04:37.616Z,102944.31
2023-01-25T07:07:39.542Z,102965.22
2023-01-25T07:10:41.844Z,102960.47
2023-01-25T07:13:48.811Z,102959.03
2023-01-25T07:16:50.927Z,102951.66
2023-01-25T07:19:52.960Z,102951.94
2023-01-25T07:22:55.059Z,102957.09
2023-01-25T07:25:58.565Z,102952.56
2023-01-25T07:29:00.750Z,102953.03
2023-01-25T07:32:03.762Z,102953.72
2023-01-25T07:35:07.189Z,102948.72
2023-01-25T07:38:09.557Z,102948.72
2023-01-25T07:41:11.892Z,102944.22
2023-01-25T07:44:14.115Z,102943.25
2023-01-25T07:47:21.136Z,102957.28
2023-01-25T07:50:23.181Z,102946.31
2023-01-25T07:53:25.419Z,102945.22
2023-01-25T07:56:32.526Z,102942.66
2023-01-25T07:59:35.589Z,102950.69
2023-01-25T08:02:37.733Z,102946.59
2023-01-25T08:05:45.028Z,102936.75
2023-01-25T08:08:49.410Z,102937.91
2023-01-25T08:11:53.671Z,102938.88
2023-01-25T08:14:55.851Z,102940.75
2023-01-25T08:18:00.219Z,102930.59
2023-01-25T08:21:02.261Z,102925.69
2023-01-25T08:24:06.559Z,102942.47
2023-01-25T08:27:08.699Z,102929.84
2023-01-25T08:30:12.857Z,102935.47
2023-01-25T08:33:14.813Z,102926.72
2023-01-25T08:36:18.687Z,102934.19
2023-01-25T08:39:20.794Z,102929.63
2023-01-25T08:42:24.227Z,102930.88
2023-01-25T08:45:26.376Z,102927.84
2023-01-25T08:48:28.742Z,102927.72
2023-01-25T08:51:32.674Z,102927.06
2023-01-25T08:54:34.792Z,102923.97
2023-01-25T08:57:36.893Z,102927.16
2023-01-25T09:00:40.524Z,102925.16
2023-01-25T09:03:47.938Z,102919.78
2023-01-25T09:06:50.060Z,102914.63
2023-01-25T09:09:52.090Z,102909.28
2023-01-25T09:12:54.212Z,102911.25
2023-01-25T09:16:10.265Z,102898.28
2023-01-25T09:19:12.295Z,102891.66
2023-01-25T09:22:14.278Z,102895.22
2023-01-25T09:25:16.497Z,102891.06
2023-01-25T09:28:18.461Z,102879.25
2023-01-25T09:31:23.613Z,102888.16
2023-01-25T09:34:46.752Z,102879.66
2023-01-25T09:37:51.823Z,102877.75
2023-01-25T09:41:12.081Z,102878.59
2023-01-25T09:44:46.741Z,102869.88
2023-01-25T09:48:08.262Z,102860.75
2023-01-25T09:51:13.031Z,102853.38
2023-01-25T09:54:18.476Z,102848.97
2023-01-25T09:57:36.962Z,102848.38
2023-01-25T10:00:45.366Z,102852.50
2023-01-25T10:03:58.656Z,102845.75
2023-01-25T10:07:19.910Z,102838.31
2023-01-25T10:10:30.482Z,102839.28
2023-01-25T10:13:32.511Z,102830.34
2023-01-25T10:16:46.816Z,102823.97
2023-01-25T10:19:52.032Z,102822.16
2023-01-25T10:23:42.111Z,102823.88
2023-01-25T10:26:48.464Z,102810.88
2023-01-25T10:29:55.366Z,102815.56
2023-01-25T10:33:13.826Z,102821.94
2023-01-25T10:36:25.713Z,102816.16
2023-01-25T10:39:29.290Z,102814.81
2023-01-25T10:42:38.374Z,102812.84
2023-01-25T10:45:43.235Z,102811.22
2023-01-25T10:48:45.405Z,102792.81
2023-01-25T10:51:47.503Z,102795.75
2023-01-25T10:55:04.958Z,102793.78
2023-01-25T10:58:46.814Z,102795.19
2023-01-25T11:01:49.094Z,102785.09
2023-01-25T11:04:51.184Z,102784.84
2023-01-25T11:07:53.965Z,102782.78
2023-01-25T11:10:56.936Z,102771.63
2023-01-25T11:13:59.143Z,102771.38
2023-01-25T11:17:03.693Z,102768.19
2023-01-25T11:20:25.930Z,102767.22
2023-01-25T11:23:28.170Z,102761.81
2023-01-25T11:26:32.343Z,102752.72
2023-01-25T11:29:34.391Z,102750.47
2023-01-25T11:32:39.627Z,102744.38
2023-01-25T11:35:59.771Z,102753.94
2023-01-25T11:39:26.543Z,102752.50
2023-01-25T11:42:42.934Z,102745.72
2023-01-25T11:45:55.553Z,102739.47
2023-01-25T11:49:15.028Z,102733.69
2023-01-25T11:53:04.317Z,102737.81
2023-01-25T11:56:23.447Z,102727.47
2023-01-25T11:59:28.270Z,102727.69
2023-01-25T12:02:46.946Z,102722.69
2023-01-25T12:06:00.765Z,102728.44
2023-01-25T12:09:02.853Z,102736.53
2023-01-25T12:12:32.018Z,102731.38
2023-01-25T12:15:57.082Z,102725.25
2023-01-25T12:19:11.149Z,102721.81
2023-01-25T12:22:34.634Z,102718.25
2023-01-25T12:26:03.823Z,102715.91
2023-01-25T12:29:29.904Z,102713.97
2023-01-25T12:32:39.321Z,102712.28
2023-01-25T12:35:57.446Z,102707.88
2023-01-25T12:38:59.426Z,102704.84
2023-01-25T12:42:13.523Z,102700.03
2023-01-25T12:45:28.737Z,102715.06
2023-01-25T12:48:37.000Z,102709.81
2023-01-25T12:51:42.041Z,102718.88
2023-01-25T12:54:45.769Z,102716.31
2023-01-25T12:58:21.614Z,102709.81
2023-01-25T13:01:31.850Z,102709.56
2023-01-25T13:05:03.788Z,102712.16
2023-01-25T13:08:53.236Z,102703.44
2023-01-25T13:11:55.570Z,102701.88
2023-01-25T13:14:57.681Z,102696.81
2023-01-25T13:17:59.807Z,102695.34
2023-01-25T13:21:11.477Z,102704.66
2023-01-25T13:24:19.778Z,102698.91
2023-01-25T13:27:27.232Z,102679.56
2023-01-25T13:30:34.610Z,102693.16
2023-01-25T13:33:37.170Z,102689.25
2023-01-25T13:36:42.013Z,102688.25
2023-01-25T13:39:55.488Z,102674.66
2023-01-25T13:43:19.528Z,102671.59
2023-01-25T13:46:25.441Z,102658.38
2023-01-25T13:49:36.422Z,102670.00
2023-01-25T13:52:38.526Z,102656.38
2023-01-25T13:55:46.598Z,102659.94
2023-01-25T13:58:48.803Z,102669.38
2023-01-25T14:01:51.668Z,102661.69
2023-01-25T14:05:01.100Z,102667.19
2023-01-25T14:08:05.478Z,102661.41
2023-01-25T14:11:08.211Z,102663.38
2023-01-25T14:14:33.366Z,102655.06
2023-01-25T14:17:35.516Z,102655.06
2023-01-25T14:20:37.671Z,102655.31
2023-01-25T14:23:45.334Z,102661.69
2023-01-25T14:26:47.895Z,102646.69
2023-01-25T14:29:51.411Z,102655.06
2023-01-25T14:32:56.026Z,102648.78
2023-01-25T14:36:16.270Z,102642.44
2023-01-25T14:39:29.182Z,102650.16
2023-01-25T14:42:32.781Z,102644.91
2023-01-25T14:45:34.921Z,102642.69
2023-01-25T14:48:42.392Z,102636.19
2023-01-25T14:51:53.731Z,102633.50
2023-01-25T14:55:00.279Z,102638.75
2023-01-25T14:58:03.104Z,102633.00
2023-01-25T15:01:24.149Z,102627.97
2023-01-25T15:04:26.421Z,102638.13
2023-01-25T15:07:42.697Z,102626.50
2023-01-25T15:10:57.891Z,102635.69
2023-01-25T15:14:08.336Z,102625.91
2023-01-25T15:17:56.609Z,102632.50
2023-01-25T15:20:58.652Z,102628.13
2023-01-25T15:24:06.695Z,102621.50
2023-01-25T15:27:10.569Z,102636.31
2023-01-25T15:30:17.948Z,102632.50
2023-01-25T15:33:26.000Z,102625.66
2023-01-25T15:36:29.332Z,102631.53
2023-01-25T15:39:32.846Z,102630.44
2023-01-25T15:42:35.043Z,102629.31
2023-01-25T15:45:37.397Z,102630.53
2023-01-25T15:48:44.608Z,102621.13
2023-01-25T15:51:47.426Z,102632.66
2023-01-25T15:54:59.934Z,102632.28
2023-01-25T15:58:05.339Z,102628.59
2023-01-25T16:01:07.882Z,102622.59
2023-01-25T16:04:13.708Z,102630.69
2023-01-25T16:07:28.974Z,102619.03
2023-01-25T16:10:31.120Z,102625.16
2023-01-25T16:13:35.783Z,102624.53
2023-01-25T16:16:41.863Z,102628.81
2023-01-25T16:19:46.315Z,102637.75
2023-01-25T16:22:48.609Z,102637.91
2023-01-25T16:25:51.081Z,102625.03
2023-01-25T16:28:53.407Z,102625.53
2023-01-25T16:31:55.794Z,102615.59
2023-01-25T16:34:59.397Z,102631.53
2023-01-25T16:38:01.752Z,102625.16
2023-01-25T16:41:05.519Z,102613.13
2023-01-25T16:44:07.716Z,102608.59
2023-01-25T16:47:14.421Z,102623.06
2023-01-25T16:50:19.079Z,102608.25
2023-01-25T16:53:21.173Z,102608.25
2023-01-25T16:56:31.579Z,102608.59
2023-01-25T16:59:33.907Z,102611.19
2023-01-25T17:02:40.111Z,102607.91
2023-01-25T17:05:44.970Z,102597.72
2023-01-25T17:08:48.834Z,102603.84
2023-01-25T17:11:51.124Z,102599.56
2023-01-25T17:14:53.714Z,102601.88
2023-01-25T17:17:55.911Z,102596.97
2023-01-25T17:21:03.659Z,102602.97
2023-01-25T17:24:06.059Z,102594.03
2023-01-25T17:27:08.132Z,102593.81
2023-01-25T17:30:11.102Z,102590.75
2023-01-25T17:33:14.594Z,102579.59
2023-01-25T17:36:16.859Z,102585.59
2023-01-25T17:39:20.260Z,102582.91
2023-01-25T17:42:22.213Z,102583.88
2023-01-25T17:45:24.235Z,102579.72
2023-01-25T17:48:26.332Z,102585.59
2023-01-25T17:51:28.791Z,102569.19
2023-01-25T17:54:30.816Z,102575.94
2023-01-25T17:57:38.649Z,102581.94
2023-01-25T18:00:42.357Z,102583.88
2023-01-25T18:03:46.653Z,102581.31
2023-01-25T18:06:48.624Z,102578.50
2023-01-25T18:09:50.786Z,102590.25
2023-01-25T18:13:04.264Z,102588.28
2023-01-25T18:16:09.717Z,102570.66
2023-01-25T18:19:38.843Z,102593.91
2023-01-25T18:22:43.854Z,102590.97
2023-01-25T18:25:47.300Z,102575.31
2023-01-25T18:28:52.173Z,102584.25
2023-01-25T18:31:54.483Z,102580.72
2023-01-25T18:34:59.529Z,102578.97
2023-01-25T18:38:09.234Z,102572.25
2023-01-25T18:41:11.970Z,102566.63
2023-01-25T18:44:15.872Z,102570.66
2023-01-25T18:47:23.170Z,102569.81
2023-01-25T18:50:25.971Z,102567.47
2023-01-25T18:53:34.547Z,102571.88
2023-01-25T18:56:39.404Z,102573.47
2023-01-25T18:59:42.210Z,102572.88
2023-01-25T19:02:44.916Z,102565.25
2023-01-25T19:05:54.738Z,102568.34
2023-01-25T19:08:57.391Z,102559.28
2023-01-25T19:12:02.104Z,102558.41
2023-01-25T19:15:04.535Z,102559.16
2023-01-25T19:18:06.561Z,102533.56
2023-01-25T19:21:10.074Z,102560.88
2023-01-25T19:24:19.788Z,102555.72
2023-01-25T19:27:22.239Z,102550.34
2023-01-25T19:30:24.624Z,102551.09
2023-01-25T19:33:29.197Z,102545.09
2023-01-25T19:36:37.531Z,102543.97
2023-01-25T19:39:40.174Z,102544.09
2023-01-25T19:42:45.399Z,102538.72
2023-01-25T19:45:47.525Z,102544.19
2023-01-25T19:48:51.506Z,102536.63
2023-01-25T19:51:56.642Z,102539.31
2023-01-25T19:55:02.907Z,102537.47
2023-01-25T19:58:05.001Z,102541.66
2023-01-25T20:01:11.984Z,102532.34
2023-01-25T20:04:22.269Z,102543.59
2023-01-25T20:07:25.879Z,102534.66
2023-01-25T20:10:36.993Z,102527.09
2023-01-25T20:13:39.704Z,102531.25
2023-01-25T20:16:48.572Z,102525.97
2023-01-25T20:19:50.742Z,102520.25
2023-01-25T20:22:53.528Z,102525.63
2023-01-25T20:25:57.733Z,102505.56
2023-01-25T20:29:00.952Z,102510.81
2023-01-25T20:32:04.705Z,102501.38
2023-01-25T20:35:08.849Z,102507.88
2023-01-25T20:38:11.220Z,102502.84
2023-01-25T20:41:16.781Z,102497.81
2023-01-25T20:44:18.936Z,102503.72
2023-01-25T20:47:21.099Z,102501.97
2023-01-25T20:50:26.579Z,102503.94
2023-01-25T20:53:29.836Z,102497.94
2023-01-25T20:56:32.437Z,102493.66
2023-01-25T20:59:34.735Z,102472.25
2023-01-25T21:02:40.698Z,102495.50
2023-01-25T21:05:53.901Z,102493.66
2023-01-25T21:08:56.120Z,102480.56
2023-01-25T21:11:58.159Z,102494.88
2023-01-25T21:15:00.371Z,102499.31
2023-01-25T21:18:02.400Z,102496.47
2023-01-25T21:21:10.571Z,102477.38
2023-01-25T21:24:13.662Z,102487.03
2023-01-25T21:27:16.025Z,102478.63
2023-01-25T21:30:19.662Z,102475.44
2023-01-25T21:33:22.786Z,102464.19
2023-01-25T21:36:25.690Z,102469.44
2023-01-25T21:39:27.812Z,102460.03
2023-01-25T21:42:32.209Z,102452.41
2023-01-25T21:45:58.093Z,102466.72
2023-01-25T21:49:24.474Z,102458.56
2023-01-25T21:52:26.642Z,102463.56
2023-01-25T21:55:29.738Z,102448.03
2023-01-25T21:58:31.771Z,102451.81
2023-01-25T22:01:33.896Z,102447.28
2023-01-25T22:04:36.300Z,102420.38
2023-01-25T22:07:38.550Z,102442.88
2023-01-25T22:10:40.792Z,102448.88
2023-01-25T22:13:42.898Z,102437.50
2023-01-25T22:16:50.840Z,102423.78
2023-01-25T22:19:52.903Z,102426.84
2023-01-25T22:22:54.902Z,102436.28
2023-01-25T22:26:05.543Z,102436.88
2023-01-25T22:29:13.799Z,102411.91
2023-01-25T22:32:15.933Z,102423.78
2023-01-25T22:35:18.661Z,102429.91
2023-01-25T22:38:20.667Z,102428.09
2023-01-25T22:41:27.881Z,102423.44
2023-01-25T22:44:30.671Z,102425.63
2023-01-25T22:47:32.765Z,102427.47
2023-01-25T22:50:34.801Z,102423.91
2023-01-25T22:53:36.957Z,102420.88
2023-01-25T22:56:39.686Z,102402.72
2023-01-25T22:59:41.731Z,102399.66
2023-01-25T23:02:43.882Z,102395.75
2023-01-25T23:05:45.938Z,102410.34
2023-01-25T23:08:48.387Z,102402.38
2023-01-25T23:11:50.461Z,102404.09
2023-01-25T23:14:54.382Z,102396.25
2023-01-25T23:18:15.201Z,102399.31
2023-01-25T23:21:22.846Z,102397.38
2023-01-25T23:24:26.621Z,102390.03
2023-01-25T23:27:28.978Z,102377.19
2023-01-25T23:30:31.271Z,102376.19
2023-01-25T23:33:33.255Z,102381.19
2023-01-25T23:36:43.049Z,102374.72
2023-01-25T23:39:45.170Z,102370.41
2023-01-25T23:42:47.647Z,102362.59
2023-01-25T23:45:49.746Z,102370.06
2023-01-25T23:48:52.120Z,102371.19
2023-01-25T23:51:54.118Z,102366.91
2023-01-25T23:54:56.254Z,102357.84
2023-01-25T23:57:58.360Z,102357.22
